Many Farms, Arizona
Current Conditions -  °F | °C
As of 11:53 AM on Friday 21 Nov 2014 (Local Time) from KGUP Reporting Station
Clear Clear  
Wind Chill: 43°   Ceiling: Unl
Heat Index: 43°   Visibility: 10mi
Dew Point: 19°   Wind: 0mph
Humidity: 38%   Direction: NA
Pressure: 30.05"   Gusts: NA
Location:  36.35°N, 109.62°W
Report Text: KGUP 211853Z AUTO 00000KT 10SM CLR 06/M07 A3005 RMK AO2 SLP184 T00611072
Loading
Personal Weather Stations






























Interactive Weather Map New forecast layout! Learn more

10-Day Weather Forecast

Advertisements
Track Severe Weather on mobile